createdAt,value
2019-02-23T00:01:48.115Z,15.93
2019-02-23T00:04:33.190Z,13.05
2019-02-23T00:07:24.344Z,14.23
2019-02-23T00:10:07.770Z,16.50
2019-02-23T00:12:58.828Z,13.90
2019-02-23T00:15:42.549Z,13.60
2019-02-23T00:18:33.956Z,18.27
2019-02-23T00:21:17.906Z,11.38
2019-02-23T00:24:01.337Z,16.12
2019-02-23T00:26:52.393Z,17.42
2019-02-23T00:29:36.517Z,13.60
2019-02-23T00:32:27.429Z,13.03
2019-02-23T00:35:11.842Z,10.90
2019-02-23T00:38:03.033Z,14.40
2019-02-23T00:40:47.425Z,14.23
2019-02-23T00:43:38.617Z,15.50
2019-02-23T00:46:22.325Z,12.23
2019-02-23T00:49:13.546Z,13.93
2019-02-23T00:51:59.242Z,14.43
2019-02-23T00:54:44.257Z,13.43
2019-02-23T00:57:35.488Z,11.53
2019-02-23T01:00:19.827Z,11.93
2019-02-23T01:03:11.052Z,13.30
2019-02-23T01:05:54.381Z,14.55
2019-02-23T01:08:45.364Z,13.10
2019-02-23T01:11:17.376Z,14.10
2019-02-23T01:14:08.621Z,17.05
2019-02-23T01:16:52.269Z,12.05
2019-02-23T01:19:47.681Z,13.65
2019-02-23T01:22:37.645Z,17.73
2019-02-23T01:25:28.898Z,11.70
2019-02-23T01:28:12.842Z,10.90
2019-02-23T01:30:57.400Z,14.18
2019-02-23T01:33:41.210Z,12.25
2019-02-23T01:36:32.378Z,11.20
2019-02-23T01:39:44.046Z,12.68
2019-02-23T01:42:35.163Z,16.90
2019-02-23T01:45:18.954Z,14.70
2019-02-23T01:48:10.129Z,15.90
2019-02-23T01:50:53.547Z,16.48
2019-02-23T01:53:37.102Z,11.97
2019-02-23T01:56:28.254Z,13.78
2019-02-23T01:59:12.130Z,13.68
2019-02-23T02:02:03.335Z,12.50
2019-02-23T02:04:47.303Z,14.05
2019-02-23T02:07:38.512Z,13.48
2019-02-23T02:10:22.764Z,15.38
2019-02-23T02:13:13.809Z,11.33
2019-02-23T02:15:57.483Z,11.75
2019-02-23T02:18:42.360Z,12.55
2019-02-23T02:21:26.003Z,15.23
2019-02-23T02:24:09.509Z,18.45
2019-02-23T02:27:00.666Z,13.30
2019-02-23T02:29:44.932Z,13.40
2019-02-23T02:32:36.407Z,18.60
2019-02-23T02:35:18.525Z,17.10
2019-02-23T02:38:03.707Z,16.27
2019-02-23T02:40:47.521Z,16.60
2019-02-23T02:43:39.288Z,15.60
2019-02-23T02:46:23.561Z,18.15
2019-02-23T02:49:14.715Z,18.42
2019-02-23T02:51:58.719Z,15.25
2019-02-23T02:54:50.368Z,21.02
2019-02-23T02:57:34.240Z,15.70
2019-02-23T03:00:25.457Z,20.70
2019-02-23T03:03:09.592Z,18.00
2019-02-23T03:06:00.821Z,18.02
2019-02-23T03:08:45.907Z,20.82
2019-02-23T03:11:30.242Z,19.05
2019-02-23T03:14:23.018Z,16.05
2019-02-23T03:17:06.844Z,16.90
2019-02-23T03:19:50.829Z,17.48
2019-02-23T03:22:42.362Z,19.87
2019-02-23T03:25:26.162Z,24.82
2019-02-23T03:28:17.269Z,18.10
2019-02-23T03:34:03.930Z,18.25
2019-02-23T03:36:36.154Z,19.75
2019-02-23T03:39:20.407Z,21.00
2019-02-23T03:41:52.484Z,18.05
2019-02-23T03:44:37.485Z,18.45
2019-02-23T03:47:28.558Z,21.07
2019-02-23T03:50:12.299Z,35.80
2019-02-23T03:53:03.510Z,20.37
2019-02-23T03:55:47.639Z,28.35
2019-02-23T03:58:31.749Z,23.32
2019-02-23T04:01:16.454Z,30.92
2019-02-23T04:04:07.506Z,22.77
2019-02-23T04:06:52.269Z,20.27
2019-02-23T04:09:25.118Z,21.65
2019-02-23T04:12:08.936Z,21.20
2019-02-23T04:15:00.165Z,25.17
2019-02-23T04:17:54.186Z,21.95
2019-02-23T04:20:45.309Z,21.90
2019-02-23T04:23:29.304Z,24.37
2019-02-23T04:26:20.490Z,22.95
2019-02-23T04:29:03.818Z,20.95
2019-02-23T04:31:54.803Z,26.35
2019-02-23T04:34:38.043Z,24.55
2019-02-23T04:37:21.616Z,21.23
2019-02-23T04:40:12.783Z,24.82
2019-02-23T04:42:56.752Z,17.85
2019-02-23T04:45:47.923Z,20.60
2019-02-23T04:48:32.082Z,23.07
2019-02-23T04:51:23.387Z,19.60
2019-02-23T04:54:07.399Z,20.10
2019-02-23T04:56:58.395Z,20.60
2019-02-23T04:59:42.138Z,28.57
2019-02-23T05:02:33.211Z,27.45
2019-02-23T05:05:17.088Z,22.85
2019-02-23T05:08:08.289Z,20.05
2019-02-23T05:10:52.548Z,24.25
2019-02-23T05:13:44.069Z,22.85
2019-02-23T05:16:28.317Z,23.07
2019-02-23T05:19:19.455Z,19.52
2019-02-23T05:22:02.923Z,26.40
2019-02-23T05:24:53.962Z,25.43
2019-02-23T05:27:37.709Z,23.98
2019-02-23T05:30:21.771Z,22.85
2019-02-23T05:33:05.207Z,22.82
2019-02-23T05:35:56.426Z,26.20
2019-02-23T05:38:40.836Z,24.63
2019-02-23T05:41:31.925Z,22.82
2019-02-23T05:44:16.436Z,25.75
2019-02-23T05:47:07.676Z,25.97
2019-02-23T05:49:51.712Z,26.23
2019-02-23T05:52:35.767Z,28.10
2019-02-23T05:55:26.783Z,24.77
2019-02-23T05:58:10.885Z,20.25
2019-02-23T06:00:54.829Z,23.55
2019-02-23T06:03:38.964Z,29.48
2019-02-23T06:06:22.963Z,29.30
2019-02-23T06:09:14.070Z,22.90
2019-02-23T06:11:57.698Z,28.75
2019-02-23T06:14:48.845Z,26.62
2019-02-23T06:17:33.062Z,28.17
2019-02-23T06:20:24.108Z,29.10
2019-02-23T06:23:08.089Z,29.87
2019-02-23T06:25:59.403Z,25.12
2019-02-23T06:28:42.837Z,26.68
2019-02-23T06:31:34.075Z,25.75
2019-02-23T06:34:18.105Z,26.60
2019-02-23T06:37:09.176Z,24.02
2019-02-23T06:39:52.630Z,23.57
2019-02-23T06:42:43.782Z,23.75
2019-02-23T06:45:27.920Z,24.98
2019-02-23T06:48:19.946Z,25.15
2019-02-23T06:51:10.070Z,26.10
2019-02-23T06:54:02.168Z,24.60
2019-02-23T06:56:47.604Z,27.50
2019-02-23T06:59:38.795Z,24.20
2019-02-23T07:02:22.817Z,24.98
2019-02-23T07:05:14.112Z,22.67
2019-02-23T07:07:57.410Z,23.75
2019-02-23T07:10:48.505Z,23.52
2019-02-23T07:13:32.593Z,25.17
2019-02-23T07:16:23.628Z,22.77
2019-02-23T07:19:07.508Z,24.10
2019-02-23T07:21:58.607Z,28.70
2019-02-23T07:24:45.353Z,23.70
2019-02-23T07:27:36.415Z,24.95
2019-02-23T07:30:20.065Z,26.30
2019-02-23T07:33:11.172Z,22.90
2019-02-23T07:35:54.476Z,25.40
2019-02-23T07:38:45.753Z,23.62
2019-02-23T07:41:30.744Z,27.73
2019-02-23T07:44:22.181Z,26.20
2019-02-23T07:47:05.885Z,28.32
2019-02-23T07:49:56.898Z,24.82
2019-02-23T07:52:41.085Z,29.48
2019-02-23T07:55:32.261Z,23.50
2019-02-23T07:58:16.037Z,27.27
2019-02-23T08:01:07.083Z,28.73
2019-02-23T08:03:39.287Z,29.37
2019-02-23T08:06:30.391Z,25.50
2019-02-23T08:09:14.458Z,32.78
2019-02-23T08:12:05.926Z,26.25
2019-02-23T08:14:49.671Z,22.10
2019-02-23T08:17:40.976Z,27.45
2019-02-23T08:20:24.951Z,26.65
2019-02-23T08:22:56.963Z,24.57
2019-02-23T08:25:40.341Z,23.52
2019-02-23T08:28:31.394Z,29.37
2019-02-23T08:31:15.050Z,25.35
2019-02-23T08:34:05.983Z,25.08
2019-02-23T08:36:50.838Z,25.20
2019-02-23T08:39:22.861Z,26.80
2019-02-23T08:42:06.731Z,28.12
2019-02-23T08:44:50.387Z,25.05
2019-02-23T08:47:35.281Z,28.30
2019-02-23T08:50:26.393Z,22.15
2019-02-23T08:53:10.056Z,21.25
2019-02-23T08:55:53.321Z,24.95
2019-02-23T08:58:44.703Z,25.85
2019-02-23T09:01:28.114Z,23.30
2019-02-23T09:04:19.291Z,24.67
2019-02-23T09:07:03.117Z,25.27
2019-02-23T09:09:54.387Z,23.40
2019-02-23T09:12:38.517Z,25.77
2019-02-23T09:15:29.701Z,21.00
2019-02-23T09:18:14.905Z,27.25
2019-02-23T09:21:06.226Z,23.42
2019-02-23T09:23:50.675Z,21.10
2019-02-23T09:26:42.140Z,26.35
2019-02-23T09:29:25.918Z,23.67
2019-02-23T09:32:17.041Z,20.85
2019-02-23T09:35:01.238Z,19.00
2019-02-23T09:37:52.409Z,21.45
2019-02-23T09:40:36.637Z,18.23
2019-02-23T09:43:27.738Z,21.35
2019-02-23T09:46:11.467Z,20.15
2019-02-23T09:49:02.580Z,21.33
2019-02-23T09:51:45.759Z,20.95
2019-02-23T09:54:36.891Z,18.67
2019-02-23T09:57:20.359Z,21.27
2019-02-23T10:00:12.087Z,18.90
2019-02-23T10:02:55.870Z,19.10
2019-02-23T10:05:46.953Z,20.40
2019-02-23T10:08:31.689Z,19.55
2019-02-23T10:11:23.022Z,20.95
2019-02-23T10:14:07.465Z,17.77
2019-02-23T10:16:58.644Z,19.05
2019-02-23T10:19:42.602Z,15.08
2019-02-23T10:22:33.688Z,16.20
2019-02-23T10:25:17.426Z,15.18
2019-02-23T10:27:49.510Z,14.28
2019-02-23T10:30:33.632Z,15.60
2019-02-23T10:33:17.453Z,16.37
2019-02-23T10:36:01.021Z,15.00
2019-02-23T10:38:44.575Z,13.13
2019-02-23T10:41:28.856Z,14.03
2019-02-23T10:44:19.979Z,13.75
2019-02-23T10:47:04.178Z,13.65
2019-02-23T10:49:55.371Z,12.23
2019-02-23T10:52:39.281Z,13.80
2019-02-23T10:55:11.979Z,12.63
2019-02-23T10:57:56.862Z,17.50
2019-02-23T11:00:48.363Z,12.47
2019-02-23T11:03:33.334Z,16.67
2019-02-23T11:06:18.278Z,10.78
2019-02-23T11:09:01.772Z,9.25
2019-02-23T11:11:54.418Z,7.58
2019-02-23T11:14:38.668Z,11.70
2019-02-23T11:17:29.854Z,11.08
2019-02-23T11:20:13.698Z,8.55
2019-02-23T11:23:04.914Z,7.55
2019-02-23T11:25:49.128Z,8.80
2019-02-23T11:28:40.236Z,8.98
2019-02-23T11:31:24.966Z,10.28
2019-02-23T11:34:16.100Z,12.13
2019-02-23T11:37:01.203Z,12.33
2019-02-23T11:39:33.177Z,10.30
2019-02-23T11:42:16.870Z,9.15
2019-02-23T11:45:08.131Z,7.40
2019-02-23T11:47:51.966Z,8.30
2019-02-23T11:50:36.388Z,8.65
2019-02-23T11:53:27.458Z,7.72
2019-02-23T11:56:11.453Z,10.50
2019-02-23T11:59:02.767Z,9.20
2019-02-23T12:01:46.211Z,9.58
2019-02-23T12:04:38.175Z,11.95
2019-02-23T12:07:21.932Z,8.18
2019-02-23T12:10:13.239Z,9.23
2019-02-23T12:12:57.230Z,14.25
2019-02-23T12:15:41.336Z,8.10
2019-02-23T12:18:32.407Z,8.40
2019-02-23T12:21:16.819Z,8.05
2019-02-23T12:24:07.968Z,7.62
2019-02-23T12:26:52.534Z,10.15
2019-02-23T12:29:44.063Z,6.22
2019-02-23T12:32:27.609Z,8.35
2019-02-23T12:35:18.784Z,6.70
2019-02-23T12:38:02.741Z,9.18
2019-02-23T12:40:53.828Z,7.35
2019-02-23T12:43:38.136Z,8.03
2019-02-23T12:46:30.550Z,6.35
2019-02-23T12:49:14.096Z,4.83
2019-02-23T12:52:06.150Z,6.20
2019-02-23T12:54:38.647Z,6.00
2019-02-23T12:57:29.666Z,5.17
2019-02-23T13:00:13.932Z,5.70
2019-02-23T13:03:05.103Z,6.00
2019-02-23T13:05:49.615Z,7.55
2019-02-23T13:09:19.033Z,10.63
2019-02-23T13:12:04.955Z,6.05
2019-02-23T13:14:51.852Z,4.33
2019-02-23T13:17:57.796Z,5.20
2019-02-23T13:20:54.884Z,4.67
2019-02-23T13:24:28.177Z,5.65
2019-02-23T13:27:11.894Z,3.83
2019-02-23T13:30:41.272Z,4.55
2019-02-23T13:33:44.207Z,7.60
2019-02-23T13:37:13.591Z,4.70
2019-02-23T13:39:59.884Z,5.90
2019-02-23T13:43:29.452Z,4.58
2019-02-23T13:46:32.566Z,4.42
2019-02-23T13:49:35.225Z,4.78
2019-02-23T13:53:04.645Z,4.50
2019-02-23T13:56:09.274Z,4.40
2019-02-23T13:59:22.461Z,5.20
2019-02-23T14:02:31.148Z,5.70
2019-02-23T14:05:44.838Z,5.05
2019-02-23T14:08:47.892Z,7.37
2019-02-23T14:12:02.630Z,6.70
2019-02-23T14:15:32.152Z,5.12
2019-02-23T14:18:49.485Z,5.47
2019-02-23T14:21:55.571Z,6.75
2019-02-23T14:25:24.996Z,11.57
2019-02-23T14:28:28.367Z,5.35
2019-02-23T14:31:30.959Z,6.47
2019-02-23T14:35:00.361Z,6.65
2019-02-23T14:38:09.408Z,6.85
2019-02-23T14:41:12.225Z,6.17
2019-02-23T14:44:03.400Z,5.70
2019-02-23T14:47:18.773Z,5.22
2019-02-23T14:50:13.875Z,7.45
2019-02-23T14:53:43.350Z,4.50
2019-02-23T14:56:46.196Z,4.60
2019-02-23T14:59:49.079Z,4.05
2019-02-23T15:03:08.492Z,4.00
2019-02-23T15:06:11.216Z,4.08
2019-02-23T15:08:59.252Z,4.70
2019-02-23T15:12:15.705Z,5.05
2019-02-23T15:15:06.896Z,10.05
2019-02-23T15:18:36.427Z,11.68
2019-02-23T15:21:23.830Z,6.00
2019-02-23T15:24:53.181Z,8.58
2019-02-23T15:27:41.203Z,4.90
2019-02-23T15:31:10.602Z,8.00
2019-02-23T15:34:03.609Z,5.78
2019-02-23T15:37:33.085Z,6.87
2019-02-23T15:40:23.936Z,6.15
2019-02-23T15:43:53.333Z,6.87
2019-02-23T15:46:56.513Z,10.95
2019-02-23T15:49:47.597Z,9.10
2019-02-23T15:52:29.628Z,5.58
2019-02-23T15:55:25.969Z,10.03
2019-02-23T15:58:11.724Z,7.40
2019-02-23T16:01:02.847Z,9.25
2019-02-23T16:03:46.800Z,9.48
2019-02-23T16:06:31.782Z,7.87
2019-02-23T16:09:15.645Z,9.80
2019-02-23T16:12:06.648Z,7.28
2019-02-23T16:14:50.770Z,6.40
2019-02-23T16:17:41.751Z,6.15
2019-02-23T16:20:26.477Z,8.93
2019-02-23T16:23:17.935Z,10.60
2019-02-23T16:26:01.977Z,5.90
2019-02-23T16:28:55.873Z,7.95
2019-02-23T16:31:44.414Z,9.28
2019-02-23T16:34:35.751Z,7.08
2019-02-23T16:37:19.322Z,7.60
2019-02-23T16:40:10.428Z,4.85
2019-02-23T16:42:55.081Z,7.35
2019-02-23T16:45:38.474Z,7.28
2019-02-23T16:48:22.411Z,6.00
2019-02-23T16:51:13.446Z,6.80
2019-02-23T16:53:57.670Z,6.10
2019-02-23T16:56:48.746Z,8.68
2019-02-23T16:59:32.911Z,7.65
2019-02-23T17:02:16.141Z,8.20
2019-02-23T17:05:07.320Z,7.03
2019-02-23T17:07:51.293Z,6.72
2019-02-23T17:10:42.494Z,6.40
2019-02-23T17:13:26.253Z,6.08
2019-02-23T17:16:17.362Z,8.10
2019-02-23T17:19:00.830Z,10.63
2019-02-23T17:21:52.207Z,11.35
2019-02-23T17:24:36.510Z,10.93
2019-02-23T17:27:35.770Z,8.48
2019-02-23T17:30:18.449Z,6.08
2019-02-23T17:33:09.492Z,5.30
2019-02-23T17:35:53.560Z,6.22
2019-02-23T17:41:38.277Z,5.75
2019-02-23T17:44:29.380Z,8.95
2019-02-23T17:47:36.219Z,6.80
2019-02-23T17:50:11.474Z,11.38
2019-02-23T17:52:55.464Z,11.38
2019-02-23T17:55:27.522Z,9.90
2019-02-23T17:58:18.741Z,8.53
2019-02-23T18:00:50.599Z,7.25
2019-02-23T18:03:41.587Z,12.78
2019-02-23T18:06:25.221Z,8.78
2019-02-23T18:09:16.396Z,7.12
2019-02-23T18:12:00.522Z,5.03
2019-02-23T18:14:51.739Z,10.18
2019-02-23T18:17:35.402Z,5.40
2019-02-23T18:20:20.062Z,7.87
2019-02-23T18:23:04.921Z,7.50
2019-02-23T18:25:56.068Z,8.60
2019-02-23T18:28:40.122Z,10.15
2019-02-23T18:31:31.243Z,7.85
2019-02-23T18:34:15.414Z,7.55
2019-02-23T18:37:06.628Z,5.65
2019-02-23T18:39:52.391Z,7.60
2019-02-23T18:42:36.463Z,7.03
2019-02-23T18:45:27.633Z,5.40
2019-02-23T18:48:11.332Z,6.80
2019-02-23T18:50:54.915Z,8.03
2019-02-23T18:53:45.971Z,8.78
2019-02-23T18:56:29.896Z,7.60
2019-02-23T18:59:20.940Z,10.30
2019-02-23T19:02:04.654Z,5.75
2019-02-23T19:04:55.936Z,15.75
2019-02-23T19:07:40.064Z,23.92
2019-02-23T19:10:31.224Z,9.53
2019-02-23T19:13:15.258Z,5.65
2019-02-23T19:15:59.827Z,5.30
2019-02-23T19:18:50.933Z,6.30
2019-02-23T19:21:34.595Z,6.42
2019-02-23T19:24:25.591Z,7.05
2019-02-23T19:27:09.682Z,6.10
2019-02-23T19:30:01.053Z,7.83
2019-02-23T19:32:45.900Z,9.00
2019-02-23T19:35:37.123Z,9.48
2019-02-23T19:38:20.976Z,7.20
2019-02-23T19:41:12.105Z,6.80
2019-02-23T19:43:55.606Z,4.70
2019-02-23T19:47:07.986Z,5.67
2019-02-23T19:49:54.250Z,6.05
2019-02-23T19:52:45.651Z,5.72
2019-02-23T19:55:28.965Z,6.65
2019-02-23T19:58:12.885Z,7.92
2019-02-23T20:00:57.185Z,6.83
2019-02-23T20:03:42.156Z,9.08
2019-02-23T20:06:33.263Z,4.70
2019-02-23T20:09:17.241Z,6.70
2019-02-23T20:12:08.490Z,7.42
2019-02-23T20:14:52.591Z,6.25
2019-02-23T20:17:36.186Z,5.65
2019-02-23T20:20:27.282Z,6.55
2019-02-23T20:23:10.547Z,4.72
2019-02-23T20:25:55.189Z,5.35
2019-02-23T20:28:46.219Z,10.93
2019-02-23T20:31:31.255Z,10.65
2019-02-23T20:34:22.785Z,15.08
2019-02-23T20:37:06.811Z,9.38
2019-02-23T20:39:57.901Z,7.75
2019-02-23T20:42:41.380Z,11.55
2019-02-23T20:45:24.914Z,10.15
2019-02-23T20:48:15.979Z,8.33
2019-02-23T20:51:00.540Z,8.25
2019-02-23T20:53:51.832Z,15.00
2019-02-23T20:56:35.515Z,7.25
2019-02-23T20:59:19.736Z,9.35
2019-02-23T21:02:10.776Z,5.08
2019-02-23T21:04:54.636Z,6.95
2019-02-23T21:07:45.690Z,6.80
2019-02-23T21:10:30.151Z,4.97
2019-02-23T21:13:15.196Z,6.97
2019-02-23T21:16:06.248Z,6.50
2019-02-23T21:18:49.704Z,4.62
2019-02-23T21:21:41.092Z,4.97
2019-02-23T21:24:30.467Z,8.78
2019-02-23T21:27:21.553Z,10.68
2019-02-23T21:30:05.376Z,5.12
2019-02-23T21:32:56.614Z,5.60
2019-02-23T21:35:41.515Z,6.35
2019-02-23T21:38:32.767Z,5.08
2019-02-23T21:41:16.040Z,5.65
2019-02-23T21:43:59.490Z,5.37
2019-02-23T21:46:44.509Z,5.35
2019-02-23T21:49:16.791Z,3.90
2019-02-23T21:52:08.154Z,5.42
2019-02-23T21:54:51.423Z,4.58
2019-02-23T21:57:43.535Z,3.50
2019-02-23T22:00:27.351Z,4.53
2019-02-23T22:03:18.647Z,4.47
2019-02-23T22:06:01.874Z,3.20
2019-02-23T22:08:52.982Z,4.33
2019-02-23T22:11:36.633Z,3.75
2019-02-23T22:14:28.759Z,2.75
2019-02-23T22:17:31.730Z,4.03
2019-02-23T22:20:22.947Z,3.80
2019-02-23T22:23:05.212Z,4.28
2019-02-23T22:25:56.212Z,3.47
2019-02-23T22:28:39.420Z,5.50
2019-02-23T22:34:33.544Z,5.75
2019-02-23T22:37:17.159Z,4.87
2019-02-23T22:40:08.147Z,4.72
2019-02-23T22:42:54.229Z,2.70
2019-02-23T22:45:37.671Z,8.23
2019-02-23T22:48:28.852Z,4.67
2019-02-23T22:51:12.334Z,3.12
2019-02-23T22:54:03.431Z,5.30
2019-02-23T22:56:47.205Z,3.85
2019-02-23T22:59:29.360Z,4.20
2019-02-23T23:02:20.465Z,3.25
2019-02-23T23:05:04.266Z,4.47
2019-02-23T23:07:55.883Z,3.35
2019-02-23T23:10:39.469Z,4.47
2019-02-23T23:13:30.493Z,5.70
2019-02-23T23:16:14.084Z,4.22
2019-02-23T23:18:58.007Z,3.02
2019-02-23T23:21:48.967Z,4.53
2019-02-23T23:24:33.841Z,4.08
2019-02-23T23:27:24.856Z,3.58
2019-02-23T23:30:08.519Z,3.12
2019-02-23T23:32:59.778Z,3.42
2019-02-23T23:35:43.678Z,4.60
2019-02-23T23:38:34.783Z,3.52
2019-02-23T23:41:18.895Z,4.03
2019-02-23T23:44:09.899Z,4.92
2019-02-23T23:46:53.926Z,3.27
2019-02-23T23:49:45.032Z,3.72
2019-02-23T23:52:29.198Z,3.67
2019-02-23T23:55:20.370Z,3.12
2019-02-23T23:58:04.474Z,3.65
